createdAt,value
2023-02-16T00:00:37.557Z,50.834862
2023-02-16T00:01:37.527Z,50.834843
2023-02-16T00:02:37.535Z,50.834824
2023-02-16T00:03:37.528Z,50.834854
2023-02-16T00:04:37.491Z,50.834843
2023-02-16T00:05:37.492Z,50.834873
2023-02-16T00:06:37.497Z,50.834927
2023-02-16T00:07:37.492Z,50.834888
2023-02-16T00:08:37.470Z,50.834858
2023-02-16T00:09:37.457Z,50.834869
2023-02-16T00:10:37.464Z,50.834839
2023-02-16T00:11:37.461Z,50.834873
2023-02-16T00:12:37.456Z,50.834869
2023-02-16T00:13:37.452Z,50.834862
2023-02-16T00:14:37.441Z,50.834850
2023-02-16T00:15:37.463Z,50.834850
2023-02-16T00:16:37.454Z,50.834866
2023-02-16T00:17:37.411Z,50.834866
2023-02-16T00:18:37.374Z,50.834862
2023-02-16T00:19:37.380Z,50.834858
2023-02-16T00:20:37.426Z,50.834869
2023-02-16T00:21:37.415Z,50.834862
2023-02-16T00:22:37.354Z,50.834816
2023-02-16T00:23:37.349Z,50.834839
2023-02-16T00:24:37.347Z,50.834854
2023-02-16T00:25:37.350Z,50.834835
2023-02-16T00:26:37.342Z,50.834839
2023-02-16T00:28:09.277Z,50.834854
2023-02-16T00:28:37.405Z,50.834839
2023-02-16T00:29:37.312Z,50.834843
2023-02-16T00:30:37.291Z,50.834858
2023-02-16T00:31:38.391Z,50.834858
2023-02-16T00:32:37.326Z,50.834854
2023-02-16T00:33:37.318Z,50.834850
2023-02-16T00:34:37.336Z,50.834846
2023-02-16T00:35:37.270Z,50.834850
2023-02-16T00:36:37.276Z,50.834850
2023-02-16T00:37:37.265Z,50.834839
2023-02-16T00:38:37.310Z,50.834831
2023-02-16T00:39:37.231Z,50.834846
2023-02-16T00:40:37.244Z,50.834839
2023-02-16T00:41:37.223Z,50.834869
2023-02-16T00:42:37.225Z,50.834831
2023-02-16T00:43:37.215Z,50.834827
2023-02-16T00:44:37.764Z,50.834843
2023-02-16T00:45:37.189Z,50.834831
2023-02-16T00:46:37.274Z,50.834858
2023-02-16T00:47:37.166Z,50.834858
2023-02-16T00:48:37.170Z,50.834827
2023-02-16T00:49:37.227Z,50.834831
2023-02-16T00:50:37.172Z,50.834827
2023-02-16T00:51:37.137Z,50.834831
2023-02-16T00:52:37.152Z,50.834843
2023-02-16T00:53:37.124Z,50.834839
2023-02-16T00:54:37.147Z,50.834831
2023-02-16T00:55:37.175Z,50.834850
2023-02-16T00:56:37.111Z,50.834839
2023-02-16T00:57:37.125Z,50.834854
2023-02-16T00:58:37.088Z,50.834854
2023-02-16T00:59:37.198Z,50.834839
2023-02-16T01:00:37.392Z,50.834831
2023-02-16T01:01:37.155Z,50.834854
2023-02-16T01:02:37.057Z,50.834850
2023-02-16T01:03:37.061Z,50.834827
2023-02-16T01:04:37.077Z,50.834835
2023-02-16T01:05:37.097Z,50.834854
2023-02-16T01:06:37.028Z,50.834862
2023-02-16T01:07:37.118Z,50.834827
2023-02-16T01:08:37.025Z,50.834831
2023-02-16T01:09:36.997Z,50.834797
2023-02-16T01:10:37.036Z,50.834808
2023-02-16T01:11:37.086Z,50.834827
2023-02-16T01:12:36.984Z,50.834839
2023-02-16T01:13:36.979Z,50.834831
2023-02-16T01:14:37.695Z,50.834835
2023-02-16T01:15:37.014Z,50.834843
2023-02-16T01:16:36.945Z,50.834846
2023-02-16T01:17:36.984Z,50.834846
2023-02-16T01:18:36.946Z,50.834820
2023-02-16T01:19:36.949Z,50.834824
2023-02-16T01:20:37.114Z,50.834820
2023-02-16T01:21:37.682Z,50.834805
2023-02-16T01:22:36.915Z,50.834816
2023-02-16T01:23:36.919Z,50.834808
2023-02-16T01:24:36.895Z,50.834824
2023-02-16T01:25:37.775Z,50.834816
2023-02-16T01:26:36.925Z,50.834808
2023-02-16T01:27:36.899Z,50.834793
2023-02-16T01:28:36.885Z,50.834812
2023-02-16T01:29:36.871Z,50.834816
2023-02-16T01:30:36.870Z,50.834827
2023-02-16T01:31:36.927Z,50.834827
2023-02-16T01:32:37.749Z,50.834839
2023-02-16T01:33:36.836Z,50.834820
2023-02-16T01:34:36.875Z,50.834820
2023-02-16T01:35:36.838Z,50.834846
2023-02-16T01:36:36.819Z,50.834839
2023-02-16T01:37:36.868Z,50.834835
2023-02-16T01:38:37.344Z,50.834812
2023-02-16T01:39:36.858Z,50.834827
2023-02-16T01:40:37.704Z,50.834827
2023-02-16T01:41:36.825Z,50.834839
2023-02-16T01:42:36.904Z,50.834797
2023-02-16T01:43:36.776Z,50.834808
2023-02-16T01:44:36.738Z,50.834831
2023-02-16T01:45:36.751Z,50.834793
2023-02-16T01:46:36.830Z,50.834812
2023-02-16T01:47:36.850Z,50.834805
2023-02-16T01:48:36.705Z,50.834812
2023-02-16T01:49:36.738Z,50.834824
2023-02-16T01:50:36.701Z,50.834827
2023-02-16T01:51:36.720Z,50.834827
2023-02-16T01:52:36.700Z,50.834824
2023-02-16T01:53:36.672Z,50.834808
2023-02-16T01:54:36.713Z,50.834816
2023-02-16T01:55:36.711Z,50.834805
2023-02-16T01:56:36.650Z,50.834827
2023-02-16T01:57:36.687Z,50.834820
2023-02-16T01:58:36.658Z,50.834820
2023-02-16T01:59:36.651Z,50.834824
2023-02-16T02:00:36.619Z,50.834835
2023-02-16T02:01:36.662Z,50.834808
2023-02-16T02:02:36.667Z,50.834820
2023-02-16T02:03:36.619Z,50.834812
2023-02-16T02:04:36.633Z,50.834816
2023-02-16T02:05:36.642Z,50.834824
2023-02-16T02:06:36.572Z,50.834843
2023-02-16T02:07:36.577Z,50.834835
2023-02-16T02:08:36.547Z,50.834843
2023-02-16T02:09:36.637Z,50.834846
2023-02-16T02:10:36.559Z,50.834831
2023-02-16T02:11:36.541Z,50.834839
2023-02-16T02:12:36.529Z,50.834854
2023-02-16T02:13:36.537Z,50.834831
2023-02-16T02:14:36.507Z,50.834816
2023-02-16T02:15:36.839Z,50.834831
2023-02-16T02:16:36.506Z,50.834839
2023-02-16T02:17:36.495Z,50.834835
2023-02-16T02:18:36.502Z,50.834824
2023-02-16T02:19:36.491Z,50.834835
2023-02-16T02:20:36.501Z,50.834824
2023-02-16T02:21:36.484Z,50.834808
2023-02-16T02:22:36.471Z,50.834805
2023-02-16T02:23:36.471Z,50.834839
2023-02-16T02:24:36.480Z,50.834846
2023-02-16T02:25:36.428Z,50.834835
2023-02-16T02:26:36.416Z,50.834820
2023-02-16T02:27:37.265Z,50.834835
2023-02-16T02:28:36.411Z,50.834831
2023-02-16T02:29:36.451Z,50.834824
2023-02-16T02:30:36.388Z,50.834831
2023-02-16T02:31:36.540Z,50.834831
2023-02-16T02:32:36.372Z,50.834846
2023-02-16T02:33:36.352Z,50.834801
2023-02-16T02:34:36.378Z,50.834805
2023-02-16T02:35:36.328Z,50.834812
2023-02-16T02:36:36.368Z,50.834824
2023-02-16T02:37:36.347Z,50.834850
2023-02-16T02:38:36.338Z,50.834862
2023-02-16T02:39:36.331Z,50.834854
2023-02-16T02:40:36.325Z,50.834850
2023-02-16T02:41:36.305Z,50.834854
2023-02-16T02:42:36.303Z,50.834820
2023-02-16T02:43:36.280Z,50.834831
2023-02-16T02:44:36.301Z,50.834831
2023-02-16T02:45:36.262Z,50.834839
2023-02-16T02:46:36.286Z,50.834820
2023-02-16T02:47:36.300Z,50.834839
2023-02-16T02:48:36.250Z,50.834869
2023-02-16T02:49:36.243Z,50.834843
2023-02-16T02:50:36.229Z,50.834824
2023-02-16T02:51:36.215Z,50.834824
2023-02-16T02:52:36.205Z,50.834843
2023-02-16T02:53:36.242Z,50.834831
2023-02-16T02:54:36.202Z,50.834858
2023-02-16T02:55:36.190Z,50.834816
2023-02-16T02:56:36.181Z,50.834805
2023-02-16T02:57:36.205Z,50.834816
2023-02-16T02:58:36.153Z,50.834820
2023-02-16T02:59:36.168Z,50.834831
2023-02-16T03:00:36.190Z,50.834812
2023-02-16T03:01:36.167Z,50.834827
2023-02-16T03:02:36.143Z,50.834820
2023-02-16T03:03:36.133Z,50.834827
2023-02-16T03:04:36.158Z,50.834808
2023-02-16T03:05:36.114Z,50.834801
2023-02-16T03:06:36.109Z,50.834801
2023-02-16T03:07:36.119Z,50.834793
2023-02-16T03:08:36.086Z,50.834820
2023-02-16T03:09:36.089Z,50.834808
2023-02-16T03:10:36.079Z,50.834774
2023-02-16T03:11:36.075Z,50.834824
2023-02-16T03:12:36.060Z,50.834824
2023-02-16T03:13:36.073Z,50.834808
2023-02-16T03:14:36.082Z,50.834812
2023-02-16T03:15:36.056Z,50.834808
2023-02-16T03:16:36.089Z,50.834805
2023-02-16T03:17:36.031Z,50.834793
2023-02-16T03:18:36.007Z,50.834831
2023-02-16T03:19:36.007Z,50.834824
2023-02-16T03:20:35.989Z,50.834805
2023-02-16T03:21:35.997Z,50.834785
2023-02-16T03:22:36.042Z,50.834808
2023-02-16T03:23:35.976Z,50.834793
2023-02-16T03:24:35.963Z,50.834805
2023-02-16T03:25:35.981Z,50.834824
2023-02-16T03:26:35.945Z,50.834824
2023-02-16T03:27:35.975Z,50.834843
2023-02-16T03:28:35.921Z,50.834816
2023-02-16T03:29:35.966Z,50.834808
2023-02-16T03:30:36.896Z,50.834793
2023-02-16T03:31:36.105Z,50.834843
2023-02-16T03:32:35.898Z,50.834839
2023-02-16T03:33:36.358Z,50.834827
2023-02-16T03:34:35.897Z,50.834816
2023-02-16T03:35:35.892Z,50.834824
2023-02-16T03:36:35.902Z,50.834808
2023-02-16T03:37:35.862Z,50.834839
2023-02-16T03:38:35.843Z,50.834835
2023-02-16T03:39:35.864Z,50.834839
2023-02-16T03:40:35.840Z,50.834820
2023-02-16T03:41:35.851Z,50.834812
2023-02-16T03:42:35.829Z,50.834801
2023-02-16T03:43:35.843Z,50.834812
2023-02-16T03:44:35.806Z,50.834812
2023-02-16T03:45:35.890Z,50.834827
2023-02-16T03:46:35.818Z,50.834820
2023-02-16T04:05:59.015Z,50.834942
2023-02-16T04:06:59.062Z,50.834862
2023-02-16T04:07:59.021Z,50.834843
2023-02-16T04:08:59.004Z,50.834835
2023-02-16T04:09:59.005Z,50.834839
2023-02-16T04:10:59.024Z,50.834827
2023-02-16T04:11:59.057Z,50.834805
2023-02-16T04:12:58.967Z,50.834797
2023-02-16T04:13:58.963Z,50.834801
2023-02-16T04:14:58.971Z,50.834797
2023-02-16T04:15:58.981Z,50.834827
2023-02-16T04:16:58.946Z,50.834801
2023-02-16T04:17:58.949Z,50.834785
2023-02-16T04:18:58.925Z,50.834797
2023-02-16T04:19:58.989Z,50.834816
2023-02-16T04:20:58.903Z,50.834774
2023-02-16T04:21:58.943Z,50.834789
2023-02-16T04:22:58.908Z,50.834793
2023-02-16T04:23:58.921Z,50.834824
2023-02-16T04:24:58.892Z,50.834820
2023-02-16T04:25:58.911Z,50.834812
2023-02-16T04:26:58.902Z,50.834812
2023-02-16T04:27:58.869Z,50.834831
2023-02-16T04:28:58.880Z,50.834850
2023-02-16T04:29:58.907Z,50.834866
2023-02-16T04:30:58.891Z,50.834862
2023-02-16T04:31:59.000Z,50.834835
2023-02-16T04:32:58.873Z,50.834801
2023-02-16T04:33:58.843Z,50.834820
2023-02-16T04:34:58.811Z,50.834846
2023-02-16T04:35:58.795Z,50.834785
2023-02-16T04:36:58.806Z,50.834862
2023-02-16T04:37:58.813Z,50.834766
2023-02-16T04:38:58.820Z,50.834728
2023-02-16T04:39:58.776Z,50.834698
2023-02-16T04:40:58.756Z,50.834751
2023-02-16T04:41:58.747Z,50.834805
2023-02-16T04:42:58.733Z,50.834770
2023-02-16T04:43:58.839Z,50.834743
2023-02-16T04:44:58.747Z,50.834751
2023-02-16T04:45:58.759Z,50.834713
2023-02-16T04:46:58.714Z,50.834770
2023-02-16T04:47:58.725Z,50.834755
2023-02-16T04:48:58.733Z,50.834755
2023-02-16T04:49:58.692Z,50.834751
2023-02-16T04:50:58.705Z,50.834797
2023-02-16T04:51:58.701Z,50.834793
2023-02-16T04:52:58.688Z,50.834766
2023-02-16T04:53:58.688Z,50.834785
2023-02-16T04:54:58.702Z,50.834728
2023-02-16T04:55:58.646Z,50.834740
2023-02-16T04:56:58.709Z,50.834801
2023-02-16T04:57:58.647Z,50.834778
2023-02-16T04:58:58.639Z,50.834721
2023-02-16T04:59:58.632Z,50.834736
2023-02-16T05:00:58.629Z,50.834774
2023-02-16T05:01:58.691Z,50.834789
2023-02-16T05:02:58.623Z,50.834740
2023-02-16T05:03:58.591Z,50.834778
2023-02-16T05:04:58.586Z,50.834824
2023-02-16T05:05:58.574Z,50.834824
2023-02-16T05:06:58.565Z,50.834812
2023-02-16T05:07:58.586Z,50.834755
2023-02-16T05:08:58.568Z,50.834751
2023-02-16T05:09:58.548Z,50.834843
2023-02-16T05:10:58.529Z,50.834724
2023-02-16T05:11:58.594Z,50.834637
2023-02-16T05:12:58.552Z,50.834702
2023-02-16T05:13:58.518Z,50.834660
2023-02-16T05:14:58.520Z,50.834667
2023-02-16T05:15:59.210Z,50.834713
2023-02-16T05:16:58.496Z,50.834774
2023-02-16T05:17:58.517Z,50.834641
2023-02-16T05:18:58.884Z,50.834717
2023-02-16T05:19:59.478Z,50.834774
2023-02-16T05:20:58.493Z,50.834690
2023-02-16T05:21:58.457Z,50.834660
2023-02-16T05:22:58.445Z,50.834835
2023-02-16T05:23:58.470Z,50.834751
2023-02-16T05:24:59.127Z,50.834709
2023-02-16T05:25:58.414Z,50.834789
2023-02-16T05:26:58.410Z,50.834782
2023-02-16T05:27:58.477Z,50.834805
2023-02-16T05:28:58.404Z,50.834785
2023-02-16T05:29:58.503Z,50.834789
2023-02-16T05:30:58.479Z,50.834770
2023-02-16T05:31:58.456Z,50.834793
2023-02-16T05:32:58.381Z,50.834774
2023-02-16T05:33:58.379Z,50.834808
2023-02-16T05:34:58.377Z,50.834793
2023-02-16T05:35:58.340Z,50.834805
2023-02-16T05:36:58.327Z,50.834808
2023-02-16T05:37:59.098Z,50.834808
2023-02-16T05:38:58.337Z,50.834816
2023-02-16T05:39:58.358Z,50.834820
2023-02-16T05:40:58.325Z,50.834808
2023-02-16T05:41:58.317Z,50.834812
2023-02-16T05:42:58.305Z,50.834820
2023-02-16T05:43:58.311Z,50.834805
2023-02-16T05:44:58.327Z,50.834789
2023-02-16T05:45:58.354Z,50.834820
2023-02-16T05:46:58.293Z,50.834812
2023-02-16T05:47:58.296Z,50.834801
2023-02-16T05:48:58.246Z,50.834789
2023-02-16T05:49:58.273Z,50.834789
2023-02-16T05:50:58.270Z,50.834778
2023-02-16T05:51:58.269Z,50.834770
2023-02-16T05:52:58.244Z,50.834797
2023-02-16T05:53:58.234Z,50.834812
2023-02-16T05:54:58.254Z,50.834805
2023-02-16T05:55:58.220Z,50.834805
2023-02-16T05:56:58.214Z,50.834805
2023-02-16T05:57:58.257Z,50.834808
2023-02-16T05:58:58.193Z,50.834812
2023-02-16T05:59:58.211Z,50.834816
2023-02-16T06:00:58.222Z,50.834835
2023-02-16T06:01:58.237Z,50.834820
2023-02-16T06:02:58.210Z,50.834808
2023-02-16T06:03:58.180Z,50.834812
2023-02-16T06:04:58.144Z,50.834827
2023-02-16T06:05:58.141Z,50.834839
2023-02-16T06:06:58.151Z,50.834862
2023-02-16T06:07:58.155Z,50.834850
2023-02-16T06:08:58.159Z,50.834858
2023-02-16T06:09:58.095Z,50.834816
2023-02-16T06:10:58.218Z,50.834820
2023-02-16T06:11:58.085Z,50.834785
2023-02-16T06:12:58.070Z,50.834801
2023-02-16T06:13:58.135Z,50.834820
2023-02-16T06:14:58.140Z,50.834858
2023-02-16T06:15:58.124Z,50.834885
2023-02-16T06:16:58.632Z,50.834866
2023-02-16T06:17:58.040Z,50.834881
2023-02-16T06:18:58.068Z,50.834858
2023-02-16T06:19:58.031Z,50.834873
2023-02-16T06:20:58.043Z,50.834858
2023-02-16T06:21:58.022Z,50.834850
2023-02-16T06:22:58.022Z,50.834854
2023-02-16T06:23:58.010Z,50.834824
2023-02-16T06:24:58.029Z,50.834820
2023-02-16T06:25:57.976Z,50.834843
2023-02-16T06:26:57.999Z,50.834862
2023-02-16T06:28:03.909Z,50.834850
2023-02-16T06:28:57.960Z,50.834812
2023-02-16T06:29:58.021Z,50.834831
2023-02-16T06:30:58.029Z,50.834797
2023-02-16T06:31:58.059Z,50.834808
2023-02-16T06:32:57.924Z,50.834820
2023-02-16T06:33:57.931Z,50.834816
2023-02-16T06:34:57.924Z,50.834812
2023-02-16T06:35:57.929Z,50.834820
2023-02-16T06:36:57.902Z,50.834831
2023-02-16T06:37:57.892Z,50.834816
2023-02-16T06:38:57.906Z,50.834797
2023-02-16T06:39:57.897Z,50.834824
2023-02-16T06:40:57.918Z,50.834808
2023-02-16T06:41:57.891Z,50.834820
2023-02-16T06:42:57.893Z,50.834808
2023-02-16T06:43:57.866Z,50.834805
2023-02-16T06:44:57.847Z,50.834816
2023-02-16T06:45:57.840Z,50.834824
2023-02-16T06:46:57.909Z,50.834808
2023-02-16T06:47:57.829Z,50.834824
2023-02-16T06:48:57.830Z,50.834824
2023-02-16T06:49:57.833Z,50.834820
2023-02-16T06:50:57.812Z,50.834812
2023-02-16T06:51:57.836Z,50.834812
2023-02-16T06:52:57.799Z,50.834835
2023-02-16T06:53:57.795Z,50.834839
2023-02-16T06:54:58.631Z,50.834824
2023-02-16T06:55:57.817Z,50.834801
2023-02-16T06:56:57.818Z,50.834793
2023-02-16T06:57:57.757Z,50.834820
2023-02-16T06:58:57.838Z,50.834816
2023-02-16T06:59:57.782Z,50.834812
2023-02-16T07:00:57.792Z,50.834801
2023-02-16T07:01:57.763Z,50.834820
2023-02-16T07:02:57.772Z,50.834824
2023-02-16T07:03:57.715Z,50.834812
2023-02-16T07:04:57.726Z,50.834816
2023-02-16T07:05:57.692Z,50.834812
2023-02-16T07:06:57.695Z,50.834812
2023-02-16T07:07:57.717Z,50.834820
2023-02-16T07:08:57.730Z,50.834782
2023-02-16T07:09:57.673Z,50.834789
2023-02-16T07:10:57.662Z,50.834766
2023-02-16T07:11:57.650Z,50.834801
2023-02-16T07:12:57.644Z,50.834785
2023-02-16T07:13:57.678Z,50.834785
2023-02-16T07:14:57.623Z,50.834816
2023-02-16T07:15:57.690Z,50.834785
2023-02-16T07:16:57.614Z,50.834763
2023-02-16T07:17:57.596Z,50.834785
2023-02-16T07:18:57.623Z,50.834759
2023-02-16T07:19:59.904Z,50.834789
2023-02-16T07:20:58.593Z,50.834778
2023-02-16T07:21:57.572Z,50.834774
2023-02-16T07:22:57.569Z,50.834789
2023-02-16T07:23:57.569Z,50.834785
2023-02-16T07:24:57.593Z,50.834797
2023-02-16T07:25:57.596Z,50.834801
2023-02-16T07:26:57.529Z,50.834812
2023-02-16T07:27:57.523Z,50.834816
2023-02-16T07:28:57.562Z,50.834805
2023-02-16T07:29:57.592Z,50.834797
2023-02-16T07:30:57.504Z,50.834793
2023-02-16T07:31:58.619Z,50.834820
2023-02-16T07:32:57.495Z,50.834782
2023-02-16T07:33:57.482Z,50.834793
2023-02-16T07:34:57.584Z,50.834801
2023-02-16T07:35:57.462Z,50.834789
2023-02-16T07:36:57.496Z,50.834789
2023-02-16T07:37:57.457Z,50.834770
2023-02-16T07:38:57.447Z,50.834782
2023-02-16T07:39:57.501Z,50.834793
2023-02-16T07:40:57.442Z,50.834785
2023-02-16T07:41:57.448Z,50.834785
2023-02-16T07:42:57.442Z,50.834770
2023-02-16T07:43:57.423Z,50.834759
2023-02-16T07:44:57.409Z,50.834770
2023-02-16T07:45:57.479Z,50.834789
2023-02-16T07:46:57.387Z,50.834785
2023-02-16T07:47:57.425Z,50.834774
2023-02-16T07:48:57.390Z,50.834763
2023-02-16T07:49:57.387Z,50.834766
2023-02-16T07:50:57.373Z,50.834766
2023-02-16T07:51:57.358Z,50.834782
2023-02-16T07:52:57.354Z,50.834766
2023-02-16T07:53:57.370Z,50.834785
2023-02-16T07:54:57.323Z,50.834751
2023-02-16T07:55:57.312Z,50.834755
2023-02-16T07:56:57.314Z,50.834770
2023-02-16T07:57:57.423Z,50.834751
2023-02-16T07:58:58.172Z,50.834759
2023-02-16T07:59:57.312Z,50.834770
2023-02-16T08:00:57.315Z,50.834778
2023-02-16T08:01:57.443Z,50.834766
2023-02-16T08:02:57.417Z,50.834751
2023-02-16T08:03:57.256Z,50.834759
2023-02-16T08:04:57.279Z,50.834770
2023-02-16T08:05:57.286Z,50.834763
2023-02-16T08:06:57.251Z,50.834766
2023-02-16T08:07:57.267Z,50.834759
2023-02-16T08:08:57.287Z,50.834770
2023-02-16T08:09:57.217Z,50.834755
2023-02-16T08:10:57.214Z,50.834747
2023-02-16T08:11:57.245Z,50.834755
2023-02-16T08:12:57.179Z,50.834747
2023-02-16T08:13:57.201Z,50.834755
2023-02-16T08:14:57.183Z,50.834770
2023-02-16T08:15:57.178Z,50.834774
2023-02-16T08:16:57.205Z,50.834785
2023-02-16T08:17:57.166Z,50.834778
2023-02-16T08:18:57.179Z,50.834774
2023-02-16T08:19:57.181Z,50.834763
2023-02-16T08:21:04.342Z,50.834774
2023-02-16T08:21:59.158Z,50.834782
2023-02-16T08:22:57.114Z,50.834782
2023-02-16T08:23:57.158Z,50.834793
2023-02-16T08:24:57.151Z,50.834774
2023-02-16T08:25:57.120Z,50.834782
2023-02-16T08:26:57.090Z,50.834789
2023-02-16T08:27:57.114Z,50.834805
2023-02-16T08:28:57.070Z,50.834797
2023-02-16T08:29:57.107Z,50.834785
2023-02-16T08:30:57.159Z,50.834785
2023-02-16T08:31:57.124Z,50.834789
2023-02-16T08:32:57.076Z,50.834797
2023-02-16T08:33:57.057Z,50.834789
2023-02-16T08:34:57.087Z,50.834785
2023-02-16T08:35:57.027Z,50.834789
2023-02-16T08:36:57.073Z,50.834778
2023-02-16T08:37:57.011Z,50.834770
2023-02-16T08:38:57.024Z,50.834774
2023-02-16T08:39:57.043Z,50.834766
2023-02-16T08:40:56.991Z,50.834751
2023-02-16T08:41:57.040Z,50.834793
2023-02-16T08:42:56.997Z,50.834789
2023-02-16T08:43:56.975Z,50.834801
2023-02-16T08:44:57.033Z,50.834797
2023-02-16T08:45:56.997Z,50.834797
2023-02-16T08:46:56.981Z,50.834805
2023-02-16T08:47:56.955Z,50.834820
2023-02-16T08:48:56.922Z,50.834805
2023-02-16T08:49:56.908Z,50.834805
2023-02-16T08:50:56.945Z,50.834816
2023-02-16T08:51:56.912Z,50.834839
2023-02-16T08:52:56.908Z,50.834812
2023-02-16T08:53:56.907Z,50.834808
2023-02-16T08:54:56.892Z,50.834812
2023-02-16T08:55:56.884Z,50.834816
2023-02-16T08:56:56.876Z,50.834812
2023-02-16T08:57:56.886Z,50.834808
2023-02-16T08:58:56.866Z,50.834824
2023-02-16T08:59:56.874Z,50.834824
2023-02-16T09:00:56.872Z,50.834824
2023-02-16T09:01:56.838Z,50.834850
2023-02-16T09:02:56.842Z,50.834835
2023-02-16T09:03:56.826Z,50.834827
2023-02-16T09:04:57.687Z,50.834839
2023-02-16T09:05:56.810Z,50.834839
2023-02-16T09:06:56.832Z,50.834812
2023-02-16T09:07:56.810Z,50.834824
2023-02-16T09:08:56.810Z,50.834816
2023-02-16T09:09:56.804Z,50.834827
2023-02-16T09:10:56.787Z,50.834801
2023-02-16T09:11:56.755Z,50.834827
2023-02-16T09:12:56.769Z,50.834839
2023-02-16T09:13:56.755Z,50.834835
2023-02-16T09:14:56.788Z,50.834831
2023-02-16T09:15:57.655Z,50.834835
2023-02-16T09:16:56.710Z,50.834816
2023-02-16T09:17:56.747Z,50.834801
2023-02-16T09:18:56.722Z,50.834789
2023-02-16T09:19:56.706Z,50.834789
2023-02-16T09:20:56.708Z,50.834801
2023-02-16T09:21:56.743Z,50.834793
2023-02-16T09:22:57.685Z,50.834816
2023-02-16T09:23:56.660Z,50.834770
2023-02-16T09:24:56.690Z,50.834801
2023-02-16T09:25:56.633Z,50.834797
2023-02-16T09:26:56.659Z,50.834793
2023-02-16T09:27:56.636Z,50.834808
2023-02-16T09:28:58.869Z,50.834816
2023-02-16T09:29:56.661Z,50.834816
2023-02-16T09:30:56.733Z,50.834816
2023-02-16T09:31:56.665Z,50.834805
2023-02-16T09:32:56.586Z,50.834801
2023-02-16T09:33:56.633Z,50.834797
2023-02-16T09:34:56.579Z,50.834805
2023-02-16T09:35:56.552Z,50.834808
2023-02-16T09:36:56.575Z,50.834808
2023-02-16T09:37:56.546Z,50.834801
2023-02-16T09:38:56.555Z,50.834801
2023-02-16T09:39:57.522Z,50.834808
2023-02-16T09:40:56.545Z,50.834816
2023-02-16T09:41:56.558Z,50.834805
2023-02-16T09:42:56.533Z,50.834820
2023-02-16T09:43:57.151Z,50.834805
2023-02-16T09:44:56.498Z,50.834812
2023-02-16T09:45:56.528Z,50.834816
2023-02-16T09:46:56.490Z,50.834789
2023-02-16T09:47:56.501Z,50.834808
2023-02-16T09:48:56.486Z,50.834793
2023-02-16T09:49:56.476Z,50.834831
2023-02-16T09:50:56.481Z,50.834827
2023-02-16T09:51:56.444Z,50.834824
2023-02-16T09:52:56.456Z,50.834812
2023-02-16T09:53:56.422Z,50.834812
2023-02-16T09:54:56.443Z,50.834812
2023-02-16T09:55:56.414Z,50.834808
2023-02-16T09:56:56.443Z,50.834820
2023-02-16T09:57:56.399Z,50.834808
2023-02-16T09:58:56.400Z,50.834808
2023-02-16T09:59:56.409Z,50.834805
2023-02-16T10:00:57.155Z,50.834789
2023-02-16T10:01:56.363Z,50.834801
2023-02-16T10:02:56.376Z,50.834789
2023-02-16T10:03:56.330Z,50.834808
2023-02-16T10:04:56.363Z,50.834812
2023-02-16T10:05:56.338Z,50.834793
2023-02-16T10:06:56.325Z,50.834797
2023-02-16T10:07:56.314Z,50.834789
2023-02-16T10:08:56.328Z,50.834793
2023-02-16T10:09:56.308Z,50.834797
2023-02-16T10:10:56.307Z,50.834812
2023-02-16T10:11:56.303Z,50.834812
2023-02-16T10:12:56.283Z,50.834816
2023-02-16T10:13:56.296Z,50.834808
2023-02-16T10:14:56.269Z,50.834820
2023-02-16T10:15:56.311Z,50.834812
2023-02-16T10:16:56.261Z,50.834808
2023-02-16T10:17:56.247Z,50.834816
2023-02-16T10:18:56.240Z,50.834812
2023-02-16T10:19:56.257Z,50.834820
2023-02-16T10:20:56.269Z,50.834816
2023-02-16T10:21:56.257Z,50.834808
2023-02-16T10:22:56.237Z,50.834801
2023-02-16T10:23:56.225Z,50.834789
2023-02-16T10:24:56.280Z,50.834789
2023-02-16T10:25:56.187Z,50.834774
2023-02-16T10:26:56.193Z,50.834785
2023-02-16T10:27:56.190Z,50.834785
2023-02-16T10:28:56.176Z,50.834778
2023-02-16T10:29:56.234Z,50.834785
2023-02-16T10:30:56.208Z,50.834778
2023-02-16T10:31:56.296Z,50.834812
2023-02-16T10:32:56.161Z,50.834812
2023-02-16T10:33:56.166Z,50.834805
2023-02-16T10:34:56.175Z,50.834816
2023-02-16T10:35:56.136Z,50.834801
2023-02-16T10:36:56.120Z,50.834789
2023-02-16T10:37:56.087Z,50.834797
2023-02-16T10:38:56.098Z,50.834789
2023-02-16T10:39:56.094Z,50.834782
2023-02-16T10:40:56.134Z,50.834789
2023-02-16T10:41:56.088Z,50.834755
2023-02-16T10:42:56.090Z,50.834770
2023-02-16T10:43:56.072Z,50.834789
2023-02-16T10:44:56.073Z,50.834789
2023-02-16T10:45:56.057Z,50.834797
2023-02-16T10:46:56.062Z,50.834801
2023-02-16T10:47:56.013Z,50.834797
2023-02-16T10:48:56.026Z,50.834808
2023-02-16T10:49:56.065Z,50.834816
2023-02-16T10:50:56.009Z,50.834801
2023-02-16T10:51:56.013Z,50.834797
2023-02-16T10:52:56.011Z,50.834778
2023-02-16T10:53:55.980Z,50.834805
2023-02-16T10:54:55.995Z,50.834793
2023-02-16T10:55:55.958Z,50.834782
2023-02-16T10:56:55.937Z,50.834801
2023-02-16T10:57:55.987Z,50.834812
2023-02-16T10:58:55.941Z,50.834812
2023-02-16T10:59:55.928Z,50.834797
2023-02-16T11:00:55.894Z,50.834805
2023-02-16T11:01:55.983Z,50.834816
2023-02-16T11:02:55.895Z,50.834793
2023-02-16T11:03:55.890Z,50.834782
2023-02-16T11:04:55.883Z,50.834797
2023-02-16T11:05:55.897Z,50.834801
2023-02-16T11:06:56.790Z,50.834812
2023-02-16T11:07:55.859Z,50.834820
2023-02-16T11:08:55.869Z,50.834820
2023-02-16T11:09:55.881Z,50.834808
2023-02-16T11:10:55.846Z,50.834789
2023-02-16T11:11:55.883Z,50.834805
2023-02-16T11:12:55.854Z,50.834808
2023-02-16T11:13:55.835Z,50.834805
2023-02-16T11:14:55.823Z,50.834797
2023-02-16T11:15:55.877Z,50.834808
2023-02-16T11:16:55.819Z,50.834785
2023-02-16T11:17:55.806Z,50.834808
2023-02-16T11:18:55.785Z,50.834839
2023-02-16T11:19:55.801Z,50.834827
2023-02-16T11:20:55.771Z,50.834812
2023-02-16T11:21:55.816Z,50.834835
2023-02-16T11:22:55.766Z,50.834843
2023-02-16T11:23:55.769Z,50.834835
2023-02-16T11:24:55.743Z,50.834843
2023-02-16T11:25:55.725Z,50.834854
2023-02-16T11:26:55.729Z,50.834862
2023-02-16T11:27:55.717Z,50.834839
2023-02-16T11:28:55.729Z,50.834843
2023-02-16T11:29:55.710Z,50.834862
2023-02-16T11:30:55.737Z,50.834843
2023-02-16T11:31:55.718Z,50.834850
2023-02-16T11:32:55.695Z,50.834850
2023-02-16T11:33:55.722Z,50.834850
2023-02-16T11:34:55.703Z,50.834866
2023-02-16T11:35:55.657Z,50.834869
2023-02-16T11:36:55.670Z,50.834846
2023-02-16T11:37:55.641Z,50.834862
2023-02-16T11:38:55.663Z,50.834812
2023-02-16T11:39:55.719Z,50.834816
2023-02-16T11:40:55.603Z,50.834862
2023-02-16T11:41:56.233Z,50.834827
2023-02-16T11:42:55.606Z,50.834850